Create Tblcommutelog Verified Points Advance Search
| # | Trip ID | Id Commuter | Trip Date | Trip Num | Current Lat | Current Lng | Delta Distance | Current Time | Activity | Activity Confidence | Current Speed | |
|---|---|---|---|---|---|---|---|---|---|---|---|---|
| 69981 | 251120_770910_16638064_1719 | 770910 | (not set) | (not set) | 38.853801185336 | -77.043827978593 | 3.6129 | 2025-11-20 17:41:59 | in_vehicle | 100 | -0.44703925898772 | |
| 69982 | 251120_770910_16638064_1719 | 770910 | (not set) | (not set) | 38.853787524683 | -77.043822936825 | 3.6129 | 2025-11-20 17:41:59 | in_vehicle | 100 | 0 | |
| 69983 | 251120_770021_16637091_1725 | 770021 | (not set) | (not set) | 38.974880482847 | -77.018087751413 | 2.0411 | 2025-11-20 17:42:00 | unknown | 100 | 0.38445376272944 | |
| 69984 | 251120_781975_16654380_1651 | 781975 | (not set) | (not set) | 38.671732488133 | -77.247330138367 | 23.0575 | 2025-11-20 17:42:00 | in_vehicle | 100 | 14.868525753932 | |
| 69985 | 251120_784627_16652599_1712 | 784627 | (not set) | (not set) | 39.047939827405 | -77.112568484525 | 11.0805 | 2025-11-20 17:42:00 | unknown | 100 | 0.013411177769632 | |
| 69986 | 251120_781975_16654380_1651 | 781975 | (not set) | (not set) | 38.671732488133 | -77.247330138367 | 23.0575 | 2025-11-20 17:42:00 | in_vehicle | 100 | 14.868525753932 | |
| 69987 | 251120_715163_16653200_1737 | 715163 | (not set) | (not set) | 38.80725 | -77.0456289 | 0.2104 | 2025-11-20 17:42:00 | running | 100 | 0.65714771071195 | |
| 69988 | 251120_715163_16653200_1737 | 715163 | (not set) | (not set) | 38.80725 | -77.0456289 | 0.2104 | 2025-11-20 17:42:00 | running | 100 | 0.65714771071195 | |
| 69989 | 251120_698742_16655895_1738 | 698742 | (not set) | (not set) | 38.874655258807 | -77.038492235489 | 1.3033 | 2025-11-20 17:42:02 | in_vehicle | 100 | 5.8115103668404 | |
| 69990 | 251120_700992_16654347_1705 | 700992 | (not set) | (not set) | 39.023040810884 | -77.106817850088 | 3.6634 | 2025-11-20 17:42:02 | in_vehicle | 100 | 7.7248383953079 | |
| 69991 | 251120_780745_16648422_1640 | 780745 | (not set) | (not set) | 39.090379575732 | -77.557098235962 | 37.6402 | 2025-11-20 17:42:02 | in_vehicle | 100 | 2.9415183241392 | |
| 69992 | 251120_785674_6441454_1640 | 785674 | (not set) | (not set) | 39.400758666667 | -77.4271335 | 33.4816 | 2025-11-20 17:42:02 | in_vehicle | 100 | 2.4587159244325 | |
| 69993 | 251120_785674_6441454_1640 | 785674 | (not set) | (not set) | 39.400758666667 | -77.4271335 | 33.4816 | 2025-11-20 17:42:02 | in_vehicle | 100 | 2.4587159244325 | |
| 69994 | 251120_786962_16655379_1656 | 786962 | (not set) | (not set) | 38.776733937102 | -77.181293157558 | 15.2147 | 2025-11-20 17:42:03 | in_vehicle | 100 | 11.064221659946 | |
| 69995 | 251120_784389_16652315_1636 | 784389 | (not set) | (not set) | 39.09054284582 | -77.556845328329 | 38.2171 | 2025-11-20 17:42:04 | in_vehicle | 100 | 4.6089747601634 | |
| 69996 | 251120_785997_16654252_1611 | 785997 | (not set) | (not set) | 39.328770420628 | -76.465739668469 | 47.6361 | 2025-11-20 17:42:04 | in_vehicle | 100 | 17.894981537279 | |
| 69997 | 251120_785331_16653457_1725 | 785331 | (not set) | (not set) | 38.885333094027 | -77.15399467169 | 5.849 | 2025-11-20 17:42:04 | still | 33 | -0.44703925898772 | |
| 69998 | 251120_785331_16653457_1725 | 785331 | (not set) | (not set) | 38.881924628628 | -77.112329851265 | 3.1147 | 2025-11-20 17:42:04 | still | 33 | -0.44703925898772 | |
| 69999 | 251120_785331_16653457_1725 | 785331 | (not set) | (not set) | 38.885333094027 | -77.15399467169 | 5.849 | 2025-11-20 17:42:04 | still | 33 | -0.44703925898772 | |
| 70000 | 251120_785331_16653457_1725 | 785331 | (not set) | (not set) | 38.881924628628 | -77.112329851265 | 3.1147 | 2025-11-20 17:42:04 | still | 33 | -0.44703925898772 |